sensor_id;sensor_type;location;lat;lon;timestamp;P1;durP1;ratioP1;P2;durP2;ratioP2
35312;SDS011;21425;50.454;30.466;2022-08-16T00:00:52;13.70;;;5.00;;
35312;SDS011;21425;50.454;30.466;2022-08-16T00:03:18;8.07;;;4.38;;
35312;SDS011;21425;50.454;30.466;2022-08-16T00:05:45;20.17;;;4.22;;
35312;SDS011;21425;50.454;30.466;2022-08-16T00:08:10;8.93;;;4.00;;
35312;SDS011;21425;50.454;30.466;2022-08-16T00:10:36;9.80;;;3.75;;
35312;SDS011;21425;50.454;30.466;2022-08-16T00:13:03;10.85;;;4.20;;
35312;SDS011;21425;50.454;30.466;2022-08-16T00:15:34;11.82;;;3.55;;
35312;SDS011;21425;50.454;30.466;2022-08-16T00:18:02;14.32;;;4.80;;
35312;SDS011;21425;50.454;30.466;2022-08-16T00:20:29;9.52;;;3.72;;
35312;SDS011;21425;50.454;30.466;2022-08-16T00:22:55;10.32;;;4.65;;
35312;SDS011;21425;50.454;30.466;2022-08-16T00:25:22;7.53;;;3.53;;
35312;SDS011;21425;50.454;30.466;2022-08-16T00:27:48;14.05;;;3.90;;
35312;SDS011;21425;50.454;30.466;2022-08-16T00:30:15;7.53;;;3.90;;
35312;SDS011;21425;50.454;30.466;2022-08-16T00:32:42;10.52;;;4.38;;
35312;SDS011;21425;50.454;30.466;2022-08-16T00:35:20;9.32;;;3.72;;
35312;SDS011;21425;50.454;30.466;2022-08-16T00:37:50;6.40;;;3.85;;
35312;SDS011;21425;50.454;30.466;2022-08-16T00:40:19;7.45;;;3.75;;
35312;SDS011;21425;50.454;30.466;2022-08-16T00:42:57;6.95;;;3.78;;
35312;SDS011;21425;50.454;30.466;2022-08-16T00:45:39;8.43;;;3.92;;
35312;SDS011;21425;50.454;30.466;2022-08-16T00:48:10;11.98;;;4.60;;
35312;SDS011;21425;50.454;30.466;2022-08-16T00:50:38;9.73;;;3.88;;
35312;SDS011;21425;50.454;30.466;2022-08-16T00:53:06;9.30;;;3.58;;
35312;SDS011;21425;50.454;30.466;2022-08-16T00:55:34;13.18;;;4.30;;
35312;SDS011;21425;50.454;30.466;2022-08-16T00:58:03;7.18;;;4.15;;
35312;SDS011;21425;50.454;30.466;2022-08-16T01:00:30;11.38;;;3.58;;
35312;SDS011;21425;50.454;30.466;2022-08-16T01:03:02;8.48;;;3.95;;
35312;SDS011;21425;50.454;30.466;2022-08-16T01:05:30;10.20;;;4.65;;
35312;SDS011;21425;50.454;30.466;2022-08-16T01:07:56;11.73;;;4.10;;
35312;SDS011;21425;50.454;30.466;2022-08-16T01:10:23;8.70;;;4.18;;
35312;SDS011;21425;50.454;30.466;2022-08-16T01:12:51;10.35;;;4.25;;
35312;SDS011;21425;50.454;30.466;2022-08-16T01:15:17;10.93;;;4.25;;
35312;SDS011;21425;50.454;30.466;2022-08-16T01:17:43;6.28;;;3.85;;
35312;SDS011;21425;50.454;30.466;2022-08-16T01:20:11;11.43;;;4.45;;
35312;SDS011;21425;50.454;30.466;2022-08-16T01:25:36;11.60;;;5.10;;
35312;SDS011;21425;50.454;30.466;2022-08-16T01:28:08;11.13;;;4.30;;
35312;SDS011;21425;50.454;30.466;2022-08-16T01:30:38;10.02;;;4.00;;
35312;SDS011;21425;50.454;30.466;2022-08-16T01:33:06;11.25;;;4.63;;
35312;SDS011;21425;50.454;30.466;2022-08-16T01:35:44;6.32;;;4.18;;
35312;SDS011;21425;50.454;30.466;2022-08-16T01:38:17;10.43;;;4.82;;
35312;SDS011;21425;50.454;30.466;2022-08-16T01:40:43;9.05;;;5.60;;
35312;SDS011;21425;50.454;30.466;2022-08-16T01:43:09;11.38;;;4.90;;
35312;SDS011;21425;50.454;30.466;2022-08-16T01:45:35;9.80;;;5.55;;
35312;SDS011;21425;50.454;30.466;2022-08-16T01:48:01;10.05;;;5.15;;
35312;SDS011;21425;50.454;30.466;2022-08-16T01:50:27;9.75;;;4.50;;
35312;SDS011;21425;50.454;30.466;2022-08-16T01:52:53;10.27;;;4.80;;
35312;SDS011;21425;50.454;30.466;2022-08-16T01:55:22;6.50;;;4.57;;
35312;SDS011;21425;50.454;30.466;2022-08-16T01:57:48;10.13;;;4.10;;
35312;SDS011;21425;50.454;30.466;2022-08-16T02:00:15;10.80;;;3.97;;
35312;SDS011;21425;50.454;30.466;2022-08-16T02:02:42;7.95;;;4.85;;
35312;SDS011;21425;50.454;30.466;2022-08-16T02:05:08;7.18;;;4.43;;
35312;SDS011;21425;50.454;30.466;2022-08-16T02:07:34;7.55;;;4.20;;
35312;SDS011;21425;50.454;30.466;2022-08-16T02:10:00;7.93;;;4.35;;
35312;SDS011;21425;50.454;30.466;2022-08-16T02:12:26;11.77;;;4.47;;
35312;SDS011;21425;50.454;30.466;2022-08-16T02:14:53;9.77;;;4.43;;
35312;SDS011;21425;50.454;30.466;2022-08-16T02:17:19;9.25;;;4.03;;
35312;SDS011;21425;50.454;30.466;2022-08-16T02:19:45;9.80;;;4.32;;
35312;SDS011;21425;50.454;30.466;2022-08-16T02:22:14;8.13;;;4.30;;
35312;SDS011;21425;50.454;30.466;2022-08-16T02:24:43;11.50;;;4.35;;
35312;SDS011;21425;50.454;30.466;2022-08-16T02:27:09;9.70;;;4.70;;
35312;SDS011;21425;50.454;30.466;2022-08-16T02:29:35;8.80;;;5.13;;
35312;SDS011;21425;50.454;30.466;2022-08-16T02:32:02;10.65;;;4.88;;
35312;SDS011;21425;50.454;30.466;2022-08-16T02:34:28;9.93;;;5.03;;
35312;SDS011;21425;50.454;30.466;2022-08-16T02:36:54;9.15;;;4.80;;
35312;SDS011;21425;50.454;30.466;2022-08-16T02:39:19;7.60;;;5.35;;
35312;SDS011;21425;50.454;30.466;2022-08-16T02:41:46;10.15;;;4.20;;
35312;SDS011;21425;50.454;30.466;2022-08-16T02:44:13;12.68;;;5.47;;
35312;SDS011;21425;50.454;30.466;2022-08-16T02:46:43;8.70;;;5.07;;
35312;SDS011;21425;50.454;30.466;2022-08-16T02:49:09;11.40;;;4.78;;
35312;SDS011;21425;50.454;30.466;2022-08-16T02:51:35;11.63;;;4.90;;
35312;SDS011;21425;50.454;30.466;2022-08-16T02:54:03;12.68;;;4.90;;
35312;SDS011;21425;50.454;30.466;2022-08-16T02:56:29;9.93;;;4.80;;
35312;SDS011;21425;50.454;30.466;2022-08-16T02:58:55;10.90;;;5.03;;
35312;SDS011;21425;50.454;30.466;2022-08-16T03:01:22;12.18;;;5.70;;
35312;SDS011;21425;50.454;30.466;2022-08-16T03:03:50;8.90;;;4.45;;
35312;SDS011;21425;50.454;30.466;2022-08-16T03:06:16;12.27;;;6.00;;
35312;SDS011;21425;50.454;30.466;2022-08-16T03:08:45;8.95;;;4.93;;
35312;SDS011;21425;50.454;30.466;2022-08-16T03:11:11;13.88;;;5.20;;
35312;SDS011;21425;50.454;30.466;2022-08-16T03:13:38;8.77;;;4.80;;
35312;SDS011;21425;50.454;30.466;2022-08-16T03:16:04;12.35;;;5.35;;
35312;SDS011;21425;50.454;30.466;2022-08-16T03:18:30;9.93;;;4.75;;
35312;SDS011;21425;50.454;30.466;2022-08-16T03:20:56;12.18;;;4.95;;
35312;SDS011;21425;50.454;30.466;2022-08-16T03:23:23;10.57;;;5.65;;
35312;SDS011;21425;50.454;30.466;2022-08-16T03:25:49;8.25;;;5.80;;
35312;SDS011;21425;50.454;30.466;2022-08-16T03:28:15;8.95;;;4.85;;
35312;SDS011;21425;50.454;30.466;2022-08-16T03:30:41;7.95;;;5.07;;
35312;SDS011;21425;50.454;30.466;2022-08-16T03:33:06;12.40;;;5.70;;
35312;SDS011;21425;50.454;30.466;2022-08-16T03:35:35;13.93;;;4.82;;
35312;SDS011;21425;50.454;30.466;2022-08-16T03:38:04;10.10;;;5.70;;
35312;SDS011;21425;50.454;30.466;2022-08-16T03:40:32;12.25;;;5.28;;
35312;SDS011;21425;50.454;30.466;2022-08-16T03:42:58;9.48;;;5.35;;
35312;SDS011;21425;50.454;30.466;2022-08-16T03:45:24;11.65;;;5.72;;
35312;SDS011;21425;50.454;30.466;2022-08-16T03:47:50;16.17;;;5.22;;
35312;SDS011;21425;50.454;30.466;2022-08-16T03:50:16;11.80;;;5.78;;
35312;SDS011;21425;50.454;30.466;2022-08-16T03:52:42;9.85;;;5.03;;
35312;SDS011;21425;50.454;30.466;2022-08-16T03:55:08;7.72;;;5.45;;
35312;SDS011;21425;50.454;30.466;2022-08-16T03:57:34;8.32;;;6.03;;
35312;SDS011;21425;50.454;30.466;2022-08-16T04:00:11;8.77;;;5.43;;
35312;SDS011;21425;50.454;30.466;2022-08-16T04:02:40;9.65;;;5.55;;
35312;SDS011;21425;50.454;30.466;2022-08-16T04:05:07;14.55;;;5.72;;
35312;SDS011;21425;50.454;30.466;2022-08-16T04:07:33;11.98;;;5.50;;
35312;SDS011;21425;50.454;30.466;2022-08-16T04:10:00;10.65;;;5.57;;
35312;SDS011;21425;50.454;30.466;2022-08-16T04:12:26;12.82;;;5.80;;
35312;SDS011;21425;50.454;30.466;2022-08-16T04:14:51;10.85;;;5.22;;
35312;SDS011;21425;50.454;30.466;2022-08-16T04:17:17;9.38;;;5.53;;
35312;SDS011;21425;50.454;30.466;2022-08-16T04:19:42;13.90;;;5.32;;
35312;SDS011;21425;50.454;30.466;2022-08-16T04:22:11;12.02;;;5.43;;
35312;SDS011;21425;50.454;30.466;2022-08-16T04:24:37;8.25;;;5.40;;
35312;SDS011;21425;50.454;30.466;2022-08-16T04:27:03;10.80;;;5.70;;
35312;SDS011;21425;50.454;30.466;2022-08-16T04:29:29;9.15;;;5.68;;
35312;SDS011;21425;50.454;30.466;2022-08-16T04:31:55;15.88;;;5.85;;
35312;SDS011;21425;50.454;30.466;2022-08-16T04:34:21;7.97;;;5.28;;
35312;SDS011;21425;50.454;30.466;2022-08-16T04:36:48;9.75;;;5.70;;
35312;SDS011;21425;50.454;30.466;2022-08-16T04:39:14;8.75;;;5.32;;
35312;SDS011;21425;50.454;30.466;2022-08-16T04:41:39;8.88;;;5.47;;
35312;SDS011;21425;50.454;30.466;2022-08-16T04:44:05;14.80;;;5.40;;
35312;SDS011;21425;50.454;30.466;2022-08-16T04:46:31;8.85;;;5.45;;
35312;SDS011;21425;50.454;30.466;2022-08-16T04:48:57;12.18;;;5.30;;
35312;SDS011;21425;50.454;30.466;2022-08-16T04:51:23;11.40;;;5.93;;
35312;SDS011;21425;50.454;30.466;2022-08-16T04:53:48;12.60;;;5.63;;
35312;SDS011;21425;50.454;30.466;2022-08-16T04:56:15;9.90;;;5.72;;
35312;SDS011;21425;50.454;30.466;2022-08-16T04:58:43;10.25;;;5.75;;
35312;SDS011;21425;50.454;30.466;2022-08-16T05:01:09;14.13;;;5.35;;
35312;SDS011;21425;50.454;30.466;2022-08-16T05:03:35;13.32;;;5.82;;
35312;SDS011;21425;50.454;30.466;2022-08-16T05:06:00;11.60;;;5.40;;
35312;SDS011;21425;50.454;30.466;2022-08-16T05:08:26;8.43;;;5.20;;
35312;SDS011;21425;50.454;30.466;2022-08-16T05:10:53;10.98;;;5.80;;
35312;SDS011;21425;50.454;30.466;2022-08-16T05:13:19;11.60;;;5.32;;
35312;SDS011;21425;50.454;30.466;2022-08-16T05:15:45;18.65;;;5.90;;
35312;SDS011;21425;50.454;30.466;2022-08-16T05:18:12;10.50;;;5.25;;
35312;SDS011;21425;50.454;30.466;2022-08-16T05:20:38;7.72;;;5.22;;
35312;SDS011;21425;50.454;30.466;2022-08-16T05:23:04;8.07;;;5.28;;
35312;SDS011;21425;50.454;30.466;2022-08-16T05:25:30;11.00;;;5.60;;
35312;SDS011;21425;50.454;30.466;2022-08-16T05:27:55;9.63;;;5.20;;
35312;SDS011;21425;50.454;30.466;2022-08-16T05:30:23;11.80;;;4.93;;
35312;SDS011;21425;50.454;30.466;2022-08-16T05:32:48;15.60;;;6.10;;
35312;SDS011;21425;50.454;30.466;2022-08-16T05:35:14;9.02;;;5.55;;
35312;SDS011;21425;50.454;30.466;2022-08-16T05:37:40;10.32;;;5.38;;
35312;SDS011;21425;50.454;30.466;2022-08-16T05:40:06;11.65;;;5.50;;
35312;SDS011;21425;50.454;30.466;2022-08-16T05:42:33;11.00;;;5.40;;
35312;SDS011;21425;50.454;30.466;2022-08-16T05:44:59;13.00;;;5.65;;
35312;SDS011;21425;50.454;30.466;2022-08-16T05:47:27;12.10;;;5.30;;
35312;SDS011;21425;50.454;30.466;2022-08-16T05:49:53;13.05;;;5.30;;
35312;SDS011;21425;50.454;30.466;2022-08-16T05:52:19;11.30;;;5.07;;
35312;SDS011;21425;50.454;30.466;2022-08-16T05:54:44;11.10;;;5.18;;
35312;SDS011;21425;50.454;30.466;2022-08-16T05:57:10;9.82;;;5.13;;
35312;SDS011;21425;50.454;30.466;2022-08-16T05:59:36;9.70;;;4.65;;
35312;SDS011;21425;50.454;30.466;2022-08-16T06:02:02;8.85;;;5.00;;
35312;SDS011;21425;50.454;30.466;2022-08-16T06:04:29;8.90;;;5.25;;
35312;SDS011;21425;50.454;30.466;2022-08-16T06:06:55;9.57;;;5.13;;
35312;SDS011;21425;50.454;30.466;2022-08-16T06:09:21;9.15;;;4.60;;
35312;SDS011;21425;50.454;30.466;2022-08-16T06:11:46;11.52;;;5.50;;
35312;SDS011;21425;50.454;30.466;2022-08-16T06:14:12;8.02;;;4.55;;
35312;SDS011;21425;50.454;30.466;2022-08-16T06:16:39;8.45;;;4.93;;
35312;SDS011;21425;50.454;30.466;2022-08-16T06:19:04;9.55;;;5.05;;
35312;SDS011;21425;50.454;30.466;2022-08-16T06:21:30;11.35;;;4.82;;
35312;SDS011;21425;50.454;30.466;2022-08-16T06:23:56;10.27;;;5.22;;
35312;SDS011;21425;50.454;30.466;2022-08-16T06:26:22;11.15;;;4.90;;
35312;SDS011;21425;50.454;30.466;2022-08-16T06:28:48;9.20;;;5.47;;
35312;SDS011;21425;50.454;30.466;2022-08-16T06:31:13;12.65;;;5.78;;
35312;SDS011;21425;50.454;30.466;2022-08-16T06:33:41;10.70;;;5.75;;
35312;SDS011;21425;50.454;30.466;2022-08-16T06:36:07;12.75;;;5.97;;
35312;SDS011;21425;50.454;30.466;2022-08-16T06:38:34;9.68;;;5.82;;
35312;SDS011;21425;50.454;30.466;2022-08-16T06:41:04;9.35;;;6.45;;
35312;SDS011;21425;50.454;30.466;2022-08-16T06:43:31;11.00;;;6.63;;
35312;SDS011;21425;50.454;30.466;2022-08-16T06:45:58;16.20;;;6.28;;
35312;SDS011;21425;50.454;30.466;2022-08-16T06:48:25;13.05;;;6.15;;
35312;SDS011;21425;50.454;30.466;2022-08-16T06:50:51;12.80;;;5.78;;
35312;SDS011;21425;50.454;30.466;2022-08-16T06:53:18;10.77;;;6.03;;
35312;SDS011;21425;50.454;30.466;2022-08-16T06:55:44;9.50;;;6.28;;
35312;SDS011;21425;50.454;30.466;2022-08-16T06:58:09;11.02;;;6.22;;
35312;SDS011;21425;50.454;30.466;2022-08-16T07:00:35;11.68;;;6.45;;
35312;SDS011;21425;50.454;30.466;2022-08-16T07:03:02;11.93;;;6.55;;
35312;SDS011;21425;50.454;30.466;2022-08-16T07:05:29;11.68;;;6.50;;
35312;SDS011;21425;50.454;30.466;2022-08-16T07:07:55;13.48;;;6.15;;
35312;SDS011;21425;50.454;30.466;2022-08-16T07:10:22;16.38;;;7.15;;
35312;SDS011;21425;50.454;30.466;2022-08-16T07:12:48;11.57;;;7.28;;
35312;SDS011;21425;50.454;30.466;2022-08-16T07:15:15;12.48;;;7.13;;
35312;SDS011;21425;50.454;30.466;2022-08-16T07:17:41;13.35;;;7.72;;
35312;SDS011;21425;50.454;30.466;2022-08-16T07:20:09;22.17;;;8.85;;
35312;SDS011;21425;50.454;30.466;2022-08-16T07:22:36;15.25;;;7.88;;
35312;SDS011;21425;50.454;30.466;2022-08-16T07:25:03;25.50;;;9.40;;
35312;SDS011;21425;50.454;30.466;2022-08-16T07:27:30;21.33;;;9.32;;
35312;SDS011;21425;50.454;30.466;2022-08-16T07:29:55;14.27;;;8.07;;
35312;SDS011;21425;50.454;30.466;2022-08-16T07:32:21;19.00;;;9.10;;
35312;SDS011;21425;50.454;30.466;2022-08-16T07:34:47;19.25;;;9.20;;
35312;SDS011;21425;50.454;30.466;2022-08-16T07:37:12;16.67;;;8.15;;
35312;SDS011;21425;50.454;30.466;2022-08-16T07:39:39;17.70;;;9.18;;
35312;SDS011;21425;50.454;30.466;2022-08-16T07:42:04;18.73;;;9.10;;
35312;SDS011;21425;50.454;30.466;2022-08-16T07:44:30;17.42;;;7.93;;
35312;SDS011;21425;50.454;30.466;2022-08-16T07:46:56;13.73;;;7.25;;
35312;SDS011;21425;50.454;30.466;2022-08-16T07:49:22;14.82;;;6.75;;
35312;SDS011;21425;50.454;30.466;2022-08-16T07:51:48;12.95;;;6.47;;
35312;SDS011;21425;50.454;30.466;2022-08-16T07:54:14;13.80;;;6.95;;
35312;SDS011;21425;50.454;30.466;2022-08-16T07:56:40;12.73;;;6.40;;
35312;SDS011;21425;50.454;30.466;2022-08-16T07:59:06;11.52;;;6.47;;
35312;SDS011;21425;50.454;30.466;2022-08-16T08:01:32;14.38;;;7.45;;
35312;SDS011;21425;50.454;30.466;2022-08-16T08:03:58;16.52;;;7.13;;
35312;SDS011;21425;50.454;30.466;2022-08-16T08:06:26;11.10;;;6.72;;
35312;SDS011;21425;50.454;30.466;2022-08-16T08:08:53;19.95;;;7.85;;
35312;SDS011;21425;50.454;30.466;2022-08-16T08:11:20;11.27;;;6.32;;
35312;SDS011;21425;50.454;30.466;2022-08-16T08:13:47;11.82;;;6.72;;
35312;SDS011;21425;50.454;30.466;2022-08-16T08:16:13;12.77;;;7.38;;
35312;SDS011;21425;50.454;30.466;2022-08-16T08:18:39;13.18;;;6.80;;
35312;SDS011;21425;50.454;30.466;2022-08-16T08:21:05;14.07;;;7.35;;
35312;SDS011;21425;50.454;30.466;2022-08-16T08:23:32;12.25;;;7.10;;
35312;SDS011;21425;50.454;30.466;2022-08-16T08:26:00;11.77;;;6.90;;
35312;SDS011;21425;50.454;30.466;2022-08-16T08:28:26;9.57;;;6.03;;
35312;SDS011;21425;50.454;30.466;2022-08-16T08:30:53;10.32;;;5.82;;
35312;SDS011;21425;50.454;30.466;2022-08-16T08:33:18;15.32;;;6.40;;
35312;SDS011;21425;50.454;30.466;2022-08-16T08:35:44;12.43;;;5.80;;
35312;SDS011;21425;50.454;30.466;2022-08-16T08:38:10;8.23;;;5.25;;
35312;SDS011;21425;50.454;30.466;2022-08-16T08:40:35;8.63;;;5.82;;
35312;SDS011;21425;50.454;30.466;2022-08-16T08:43:01;8.80;;;5.85;;
35312;SDS011;21425;50.454;30.466;2022-08-16T08:45:28;11.10;;;5.95;;
35312;SDS011;21425;50.454;30.466;2022-08-16T08:47:54;12.45;;;5.57;;
35312;SDS011;21425;50.454;30.466;2022-08-16T08:50:22;10.23;;;5.13;;
35312;SDS011;21425;50.454;30.466;2022-08-16T08:52:48;7.00;;;4.35;;
35312;SDS011;21425;50.454;30.466;2022-08-16T08:55:16;7.20;;;4.28;;
35312;SDS011;21425;50.454;30.466;2022-08-16T08:57:43;13.23;;;4.85;;
35312;SDS011;21425;50.454;30.466;2022-08-16T09:00:11;8.60;;;4.50;;
35312;SDS011;21425;50.454;30.466;2022-08-16T09:02:38;10.20;;;3.53;;
35312;SDS011;21425;50.454;30.466;2022-08-16T09:05:04;8.82;;;3.70;;
35312;SDS011;21425;50.454;30.466;2022-08-16T09:07:30;6.10;;;3.03;;
35312;SDS011;21425;50.454;30.466;2022-08-16T09:09:56;7.68;;;3.97;;
35312;SDS011;21425;50.454;30.466;2022-08-16T09:12:21;4.88;;;3.53;;
35312;SDS011;21425;50.454;30.466;2022-08-16T09:14:47;6.72;;;3.50;;
35312;SDS011;21425;50.454;30.466;2022-08-16T09:17:13;5.63;;;3.25;;
35312;SDS011;21425;50.454;30.466;2022-08-16T09:19:38;7.30;;;4.03;;
35312;SDS011;21425;50.454;30.466;2022-08-16T09:22:05;6.97;;;4.25;;
35312;SDS011;21425;50.454;30.466;2022-08-16T09:24:31;7.47;;;3.60;;
35312;SDS011;21425;50.454;30.466;2022-08-16T09:26:58;5.88;;;4.10;;
35312;SDS011;21425;50.454;30.466;2022-08-16T09:29:24;9.00;;;5.22;;
35312;SDS011;21425;50.454;30.466;2022-08-16T09:31:49;8.55;;;5.45;;
35312;SDS011;21425;50.454;30.466;2022-08-16T09:34:15;7.50;;;5.30;;
35312;SDS011;21425;50.454;30.466;2022-08-16T09:36:41;8.15;;;5.05;;
35312;SDS011;21425;50.454;30.466;2022-08-16T09:39:07;9.00;;;5.68;;
35312;SDS011;21425;50.454;30.466;2022-08-16T09:41:34;9.80;;;5.75;;
35312;SDS011;21425;50.454;30.466;2022-08-16T09:44:00;10.02;;;6.00;;
35312;SDS011;21425;50.454;30.466;2022-08-16T09:46:27;9.93;;;5.57;;
35312;SDS011;21425;50.454;30.466;2022-08-16T09:48:55;11.50;;;5.72;;
35312;SDS011;21425;50.454;30.466;2022-08-16T09:51:22;9.65;;;5.95;;
35312;SDS011;21425;50.454;30.466;2022-08-16T09:53:50;9.38;;;5.57;;
35312;SDS011;21425;50.454;30.466;2022-08-16T09:56:28;9.13;;;5.65;;
35312;SDS011;21425;50.454;30.466;2022-08-16T09:58:55;9.35;;;4.90;;
35312;SDS011;21425;50.454;30.466;2022-08-16T10:01:22;8.73;;;5.85;;
35312;SDS011;21425;50.454;30.466;2022-08-16T10:03:48;9.23;;;5.97;;
35312;SDS011;21425;50.454;30.466;2022-08-16T10:06:16;8.63;;;6.40;;
35312;SDS011;21425;50.454;30.466;2022-08-16T10:08:42;8.45;;;6.35;;
35312;SDS011;21425;50.454;30.466;2022-08-16T10:11:07;10.40;;;5.95;;
35312;SDS011;21425;50.454;30.466;2022-08-16T10:13:52;9.32;;;6.20;;
35312;SDS011;21425;50.454;30.466;2022-08-16T10:16:17;11.45;;;6.40;;
35312;SDS011;21425;50.454;30.466;2022-08-16T10:18:43;9.02;;;6.07;;
35312;SDS011;21425;50.454;30.466;2022-08-16T10:21:08;12.13;;;6.72;;
35312;SDS011;21425;50.454;30.466;2022-08-16T10:23:34;10.35;;;6.63;;
35312;SDS011;21425;50.454;30.466;2022-08-16T10:26:00;11.07;;;6.90;;
35312;SDS011;21425;50.454;30.466;2022-08-16T10:28:26;12.43;;;6.68;;
35312;SDS011;21425;50.454;30.466;2022-08-16T10:30:53;8.70;;;6.22;;
35312;SDS011;21425;50.454;30.466;2022-08-16T10:33:19;12.27;;;6.82;;
35312;SDS011;21425;50.454;30.466;2022-08-16T10:35:44;8.40;;;6.40;;
35312;SDS011;21425;50.454;30.466;2022-08-16T10:38:11;8.82;;;5.70;;
35312;SDS011;21425;50.454;30.466;2022-08-16T10:40:39;12.05;;;6.28;;
35312;SDS011;21425;50.454;30.466;2022-08-16T10:43:05;9.40;;;5.32;;
35312;SDS011;21425;50.454;30.466;2022-08-16T10:45:31;10.93;;;6.72;;
35312;SDS011;21425;50.454;30.466;2022-08-16T10:47:58;12.20;;;6.40;;
35312;SDS011;21425;50.454;30.466;2022-08-16T10:50:24;11.68;;;6.13;;
35312;SDS011;21425;50.454;30.466;2022-08-16T10:52:51;10.48;;;6.53;;
35312;SDS011;21425;50.454;30.466;2022-08-16T10:55:18;11.05;;;6.95;;
35312;SDS011;21425;50.454;30.466;2022-08-16T10:57:44;11.77;;;6.43;;
35312;SDS011;21425;50.454;30.466;2022-08-16T11:00:11;8.90;;;5.90;;
35312;SDS011;21425;50.454;30.466;2022-08-16T11:02:39;8.77;;;6.38;;
35312;SDS011;21425;50.454;30.466;2022-08-16T11:05:06;8.20;;;6.30;;
35312;SDS011;21425;50.454;30.466;2022-08-16T11:07:36;10.50;;;6.93;;
35312;SDS011;21425;50.454;30.466;2022-08-16T11:10:06;7.97;;;6.15;;
35312;SDS011;21425;50.454;30.466;2022-08-16T11:12:33;10.88;;;6.32;;
35312;SDS011;21425;50.454;30.466;2022-08-16T11:14:59;7.15;;;5.50;;
35312;SDS011;21425;50.454;30.466;2022-08-16T11:17:25;13.50;;;6.18;;
35312;SDS011;21425;50.454;30.466;2022-08-16T11:19:50;10.27;;;6.40;;
35312;SDS011;21425;50.454;30.466;2022-08-16T11:22:16;11.75;;;6.22;;
35312;SDS011;21425;50.454;30.466;2022-08-16T11:24:43;9.23;;;6.30;;
35312;SDS011;21425;50.454;30.466;2022-08-16T11:27:11;10.95;;;6.28;;
35312;SDS011;21425;50.454;30.466;2022-08-16T11:29:43;10.07;;;6.95;;
35312;SDS011;21425;50.454;30.466;2022-08-16T11:32:08;12.10;;;6.75;;
35312;SDS011;21425;50.454;30.466;2022-08-16T11:34:34;9.73;;;6.72;;
35312;SDS011;21425;50.454;30.466;2022-08-16T11:37:00;14.20;;;7.10;;
35312;SDS011;21425;50.454;30.466;2022-08-16T11:39:27;12.88;;;7.28;;
35312;SDS011;21425;50.454;30.466;2022-08-16T11:41:54;14.90;;;7.07;;
35312;SDS011;21425;50.454;30.466;2022-08-16T11:44:21;14.05;;;7.20;;
35312;SDS011;21425;50.454;30.466;2022-08-16T11:46:47;10.85;;;6.85;;
35312;SDS011;21425;50.454;30.466;2022-08-16T11:49:13;18.23;;;7.40;;
35312;SDS011;21425;50.454;30.466;2022-08-16T11:51:39;15.13;;;7.30;;
35312;SDS011;21425;50.454;30.466;2022-08-16T11:54:07;12.38;;;6.70;;
35312;SDS011;21425;50.454;30.466;2022-08-16T11:56:33;10.63;;;6.75;;
35312;SDS011;21425;50.454;30.466;2022-08-16T11:59:00;12.52;;;7.47;;
35312;SDS011;21425;50.454;30.466;2022-08-16T12:01:25;11.00;;;7.00;;
35312;SDS011;21425;50.454;30.466;2022-08-16T12:03:51;13.50;;;7.05;;
35312;SDS011;21425;50.454;30.466;2022-08-16T12:06:17;14.73;;;7.15;;
35312;SDS011;21425;50.454;30.466;2022-08-16T12:08:44;8.18;;;6.78;;
35312;SDS011;21425;50.454;30.466;2022-08-16T12:11:11;15.70;;;7.25;;
35312;SDS011;21425;50.454;30.466;2022-08-16T12:13:37;10.10;;;7.25;;
35312;SDS011;21425;50.454;30.466;2022-08-16T12:16:03;17.15;;;7.30;;
35312;SDS011;21425;50.454;30.466;2022-08-16T12:18:31;9.60;;;6.88;;
35312;SDS011;21425;50.454;30.466;2022-08-16T12:20:58;15.73;;;7.82;;
35312;SDS011;21425;50.454;30.466;2022-08-16T12:23:23;10.35;;;7.40;;
35312;SDS011;21425;50.454;30.466;2022-08-16T12:25:49;10.75;;;7.35;;
35312;SDS011;21425;50.454;30.466;2022-08-16T12:28:15;25.20;;;8.27;;
35312;SDS011;21425;50.454;30.466;2022-08-16T12:30:41;12.63;;;7.30;;
35312;SDS011;21425;50.454;30.466;2022-08-16T12:33:09;18.63;;;8.75;;
35312;SDS011;21425;50.454;30.466;2022-08-16T12:35:38;16.33;;;8.23;;
35312;SDS011;21425;50.454;30.466;2022-08-16T12:38:05;9.07;;;7.18;;
35312;SDS011;21425;50.454;30.466;2022-08-16T12:40:33;16.90;;;8.25;;
35312;SDS011;21425;50.454;30.466;2022-08-16T12:43:01;15.15;;;7.97;;
35312;SDS011;21425;50.454;30.466;2022-08-16T12:45:29;10.05;;;7.22;;
35312;SDS011;21425;50.454;30.466;2022-08-16T12:47:57;15.68;;;7.88;;
35312;SDS011;21425;50.454;30.466;2022-08-16T12:50:42;10.63;;;7.43;;
35312;SDS011;21425;50.454;30.466;2022-08-16T12:53:07;19.35;;;8.90;;
35312;SDS011;21425;50.454;30.466;2022-08-16T12:55:34;11.05;;;7.57;;
35312;SDS011;21425;50.454;30.466;2022-08-16T12:58:00;13.15;;;8.15;;
35312;SDS011;21425;50.454;30.466;2022-08-16T13:00:26;15.95;;;8.25;;
35312;SDS011;21425;50.454;30.466;2022-08-16T13:02:55;10.48;;;7.97;;
35312;SDS011;21425;50.454;30.466;2022-08-16T13:05:22;9.73;;;7.38;;
35312;SDS011;21425;50.454;30.466;2022-08-16T13:07:48;12.07;;;8.05;;
35312;SDS011;21425;50.454;30.466;2022-08-16T13:10:15;14.88;;;8.02;;
35312;SDS011;21425;50.454;30.466;2022-08-16T13:12:45;16.30;;;8.40;;
35312;SDS011;21425;50.454;30.466;2022-08-16T13:15:17;11.52;;;7.80;;
35312;SDS011;21425;50.454;30.466;2022-08-16T13:17:45;10.57;;;7.72;;
35312;SDS011;21425;50.454;30.466;2022-08-16T13:20:13;13.60;;;8.18;;
35312;SDS011;21425;50.454;30.466;2022-08-16T13:22:42;13.45;;;8.25;;
35312;SDS011;21425;50.454;30.466;2022-08-16T13:25:15;10.52;;;7.78;;
35312;SDS011;21425;50.454;30.466;2022-08-16T13:30:13;17.45;;;7.18;;
35312;SDS011;21425;50.454;30.466;2022-08-16T13:32:39;15.73;;;6.75;;
35312;SDS011;21425;50.454;30.466;2022-08-16T13:35:04;11.32;;;6.30;;
35312;SDS011;21425;50.454;30.466;2022-08-16T13:37:30;9.20;;;6.32;;
35312;SDS011;21425;50.454;30.466;2022-08-16T13:39:56;14.35;;;6.55;;
35312;SDS011;21425;50.454;30.466;2022-08-16T13:42:22;10.70;;;6.50;;
35312;SDS011;21425;50.454;30.466;2022-08-16T13:44:49;7.40;;;6.18;;
35312;SDS011;21425;50.454;30.466;2022-08-16T13:47:15;10.48;;;6.57;;
35312;SDS011;21425;50.454;30.466;2022-08-16T13:49:40;13.23;;;6.38;;
35312;SDS011;21425;50.454;30.466;2022-08-16T13:52:06;9.95;;;7.03;;
35312;SDS011;21425;50.454;30.466;2022-08-16T13:54:33;12.52;;;7.07;;
35312;SDS011;21425;50.454;30.466;2022-08-16T13:56:59;9.70;;;6.75;;
35312;SDS011;21425;50.454;30.466;2022-08-16T13:59:25;12.85;;;6.68;;
35312;SDS011;21425;50.454;30.466;2022-08-16T14:01:53;10.90;;;7.38;;
35312;SDS011;21425;50.454;30.466;2022-08-16T14:04:23;14.13;;;8.50;;
35312;SDS011;21425;50.454;30.466;2022-08-16T14:06:50;14.07;;;7.82;;
35312;SDS011;21425;50.454;30.466;2022-08-16T14:09:15;15.27;;;8.00;;
35312;SDS011;21425;50.454;30.466;2022-08-16T14:11:41;11.20;;;7.38;;
35312;SDS011;21425;50.454;30.466;2022-08-16T14:14:06;10.88;;;6.82;;
35312;SDS011;21425;50.454;30.466;2022-08-16T14:16:32;10.57;;;6.75;;
35312;SDS011;21425;50.454;30.466;2022-08-16T14:18:58;9.65;;;7.65;;
35312;SDS011;21425;50.454;30.466;2022-08-16T14:21:24;10.07;;;6.82;;
35312;SDS011;21425;50.454;30.466;2022-08-16T14:23:50;10.63;;;7.32;;
35312;SDS011;21425;50.454;30.466;2022-08-16T14:26:16;11.93;;;7.88;;
35312;SDS011;21425;50.454;30.466;2022-08-16T14:28:42;9.65;;;6.80;;